Time;durP1;ratioP1;P1;durP2;ratioP2;P2;SDS_P1;SDS_P2;PMS_P1;PMS_P2;Temp;Humidity;BMP_temperature;BMP_pressure;BME280_temperature;BME280_humidity;BME280_pressure;Samples;Min_cycle;Max_cycle;Signal;HPM_P1;HPM_P2
2022/06/01 00:01:51;;;;;;;13.57;12.15;;;11.20;99.90;;;;;;5051011;28;20033;-68
2022/06/01 00:04:19;;;;;;;13.82;12.02;;;11.20;99.90;;;;;;5052500;28;20091;-68
2022/06/01 00:06:45;;;;;;;13.23;10.98;;;11.20;99.90;;;;;;5052455;28;20045;-68
2022/06/01 00:09:11;;;;;;;14.70;11.30;;;11.20;99.90;;;;;;5052100;28;20486;-68
2022/06/01 00:11:37;;;;;;;16.58;13.23;;;11.20;99.90;;;;;;5035520;28;20045;-68
2022/06/01 00:14:04;;;;;;;13.15;10.63;;;11.20;99.90;;;;;;5051076;28;20057;-68
2022/06/01 00:16:30;;;;;;;13.40;11.10;;;11.20;99.90;;;;;;5053473;28;20559;-68
2022/06/01 00:18:59;;;;;;;14.55;11.00;;;;;;;;;;5052734;28;20139;-68
2022/06/01 00:21:25;;;;;;;14.75;11.57;;;11.20;99.90;;;;;;5052362;28;20494;-68
2022/06/01 00:23:50;;;;;;;14.95;13.45;;;11.20;99.90;;;;;;5053062;28;20039;-68
2022/06/01 00:26:17;;;;;;;13.23;11.77;;;11.20;99.90;;;;;;5052047;28;20371;-68
2022/06/01 00:28:42;;;;;;;15.15;10.88;;;11.50;99.90;;;;;;5051217;28;20478;-68
2022/06/01 00:31:11;;;;;;;16.77;12.48;;;11.20;99.90;;;;;;5051932;28;20318;-68
2022/06/01 00:33:37;;;;;;;13.02;10.43;;;11.60;99.90;;;;;;5051979;28;20068;-68
2022/06/01 00:36:03;;;;;;;14.70;12.10;;;11.20;99.90;;;;;;5050405;28;20056;-68
2022/06/01 00:38:29;;;;;;;13.30;11.65;;;11.10;99.90;;;;;;5053275;28;20048;-68
2022/06/01 00:40:54;;;;;;;14.55;12.73;;;11.30;99.90;;;;;;5052605;28;20456;-68
2022/06/01 00:43:21;;;;;;;13.07;11.13;;;11.30;99.90;;;;;;5052326;28;20033;-68
2022/06/01 00:45:46;;;;;;;11.95;10.75;;;11.30;99.90;;;;;;5034806;28;20041;-68
2022/06/01 00:48:13;;;;;;;13.75;12.27;;;11.30;99.90;;;;;;5052643;28;20163;-68
2022/06/01 00:50:42;;;;;;;14.85;11.35;;;11.30;99.90;;;;;;5052215;28;20049;-68
2022/06/01 00:53:24;;;;;;;18.63;14.50;;;11.30;99.90;;;;;;5051181;28;20052;-68
2022/06/01 00:56:18;;;;;;;13.70;11.98;;;11.30;99.90;;;;;;5050793;28;20124;-68
2022/06/01 00:58:45;;;;;;;13.95;12.30;;;11.30;99.90;;;;;;5051106;28;20048;-68
2022/06/01 01:01:16;;;;;;;16.05;12.90;;;11.20;99.90;;;;;;5051194;28;20052;-68
2022/06/01 01:03:45;;;;;;;14.30;12.80;;;11.20;99.90;;;;;;5052073;28;20045;-68
2022/06/01 01:06:17;;;;;;;15.82;13.60;;;11.10;99.90;;;;;;5051033;28;20032;-68
2022/06/01 01:08:43;;;;;;;16.23;14.57;;;11.30;99.90;;;;;;5051070;28;20055;-68
2022/06/01 01:11:11;;;;;;;15.98;12.90;;;11.20;99.90;;;;;;5050400;28;20175;-68
2022/06/01 01:13:42;;;;;;;15.50;12.73;;;11.20;99.90;;;;;;5052508;28;20041;-68
2022/06/01 01:16:10;;;;;;;14.02;12.52;;;11.20;99.90;;;;;;5051065;28;20041;-68
2022/06/01 01:18:39;;;;;;;15.10;12.95;;;11.20;99.90;;;;;;5050136;28;20053;-68
2022/06/01 01:21:41;;;;;;;15.32;13.27;;;11.40;99.90;;;;;;5034071;28;20425;-68
2022/06/01 01:24:25;;;;;;;16.08;13.65;;;11.20;99.90;;;;;;5049535;28;20090;-68
2022/06/01 01:26:52;;;;;;;15.55;13.95;;;11.10;99.90;;;;;;5051856;28;20490;-68
2022/06/01 01:29:38;;;;;;;16.42;14.10;;;11.10;99.90;;;;;;5052185;28;20037;-68
2022/06/01 01:32:07;;;;;;;15.85;14.15;;;11.10;99.90;;;;;;5049625;28;20045;-68
2022/06/01 01:34:37;;;;;;;14.80;13.20;;;11.10;99.90;;;;;;5050876;28;20494;-68
2022/06/01 01:37:07;;;;;;;17.63;15.52;;;11.10;99.90;;;;;;5051878;28;20233;-68
2022/06/01 01:39:35;;;;;;;17.88;14.18;;;11.10;99.90;;;;;;5051487;28;20037;-68
2022/06/01 01:42:01;;;;;;;18.73;15.30;;;11.10;99.90;;;;;;5051424;28;20048;-68
2022/06/01 01:44:28;;;;;;;17.08;14.48;;;11.10;99.90;;;;;;5034412;28;20041;-69
2022/06/01 01:46:56;;;;;;;23.80;14.68;;;11.50;99.90;;;;;;5049853;28;20037;-69
2022/06/01 01:49:24;;;;;;;17.00;14.82;;;11.10;99.90;;;;;;5051041;28;20041;-69
2022/06/01 01:51:53;;;;;;;19.63;16.40;;;11.10;99.90;;;;;;5050124;28;20044;-69
2022/06/01 01:54:38;;;;;;;18.75;16.25;;;11.20;99.90;;;;;;5050422;28;20541;-69
2022/06/01 01:57:04;;;;;;;18.50;15.95;;;11.60;99.90;;;;;;5050064;28;20091;-70
2022/06/01 02:00:14;;;;;;;16.73;14.98;;;11.10;99.90;;;;;;5049953;28;20057;-70
2022/06/01 02:03:02;;;;;;;22.27;15.60;;;11.20;99.90;;;;;;5050797;28;20038;-69
2022/06/01 02:06:06;;;;;;;16.63;14.82;;;11.20;99.90;;;;;;5051984;28;20101;-69
2022/06/01 02:08:50;;;;;;;18.45;16.45;;;11.20;99.90;;;;;;5051260;28;20045;-69
2022/06/01 02:14:25;;;;;;;20.50;18.15;;;11.10;99.90;;;;;;5050099;28;20076;-69
2022/06/01 02:17:09;;;;;;;18.65;16.00;;;11.10;99.90;;;;;;5051422;28;20052;-69
2022/06/01 02:19:58;;;;;;;20.67;16.08;;;11.10;99.90;;;;;;5050415;28;20383;-69
2022/06/01 02:22:24;;;;;;;17.08;14.98;;;11.10;99.90;;;;;;5049830;28;20167;-69
2022/06/01 02:24:50;;;;;;;17.40;14.85;;;11.00;99.90;;;;;;5050185;28;20064;-69
2022/06/01 02:27:17;;;;;;;17.80;15.88;;;11.20;99.90;;;;;;5051347;28;20029;-69
2022/06/01 02:30:08;;;;;;;20.20;16.52;;;10.90;99.90;;;;;;5050260;28;20055;-69
2022/06/01 02:32:35;;;;;;;19.45;17.35;;;10.90;99.90;;;;;;5050572;28;20107;-69
2022/06/01 02:35:04;;;;;;;18.50;15.32;;;10.80;99.90;;;;;;5052351;28;20037;-69
2022/06/01 02:37:31;;;;;;;19.50;17.42;;;10.70;99.90;;;;;;5054121;28;20041;-69
2022/06/01 02:39:59;;;;;;;19.40;16.95;;;10.70;99.90;;;;;;5053500;28;20048;-69
2022/06/01 02:42:30;;;;;;;22.15;16.90;;;10.60;99.90;;;;;;5053246;28;20098;-69
2022/06/01 02:44:56;;;;;;;25.48;17.33;;;10.60;99.90;;;;;;5053302;28;20037;-69
2022/06/01 02:47:23;;;;;;;17.85;15.18;;;10.80;99.90;;;;;;5054148;28;20397;-69
2022/06/01 02:49:49;;;;;;;18.60;16.58;;;10.50;99.90;;;;;;5052844;28;20049;-69
2022/06/01 02:52:15;;;;;;;21.88;18.02;;;10.40;99.90;;;;;;5053840;28;20548;-69
2022/06/01 02:54:41;;;;;;;18.33;16.23;;;10.50;99.90;;;;;;5054983;28;20500;-69
2022/06/01 02:57:07;;;;;;;18.92;16.75;;;10.50;99.90;;;;;;5053704;28;20041;-69
2022/06/01 02:59:33;;;;;;;20.92;18.67;;;10.50;99.90;;;;;;5054971;28;20040;-69
2022/06/01 03:01:59;;;;;;;21.02;18.00;;;10.50;99.90;;;;;;5052968;28;20040;-69
2022/06/01 03:04:26;;;;;;;23.33;20.52;;;10.50;99.90;;;;;;5053254;28;20048;-69
2022/06/01 03:06:53;;;;;;;21.42;18.35;;;10.50;99.90;;;;;;5054517;28;20111;-69
2022/06/01 03:09:19;;;;;;;24.60;18.15;;;10.50;99.90;;;;;;5053661;28;20032;-69
2022/06/01 03:11:44;;;;;;;20.52;18.33;;;10.50;99.90;;;;;;5053720;28;20037;-69
2022/06/01 03:14:10;;;;;;;20.30;18.15;;;10.50;99.90;;;;;;5053171;28;20041;-69
2022/06/01 03:16:37;;;;;;;19.13;16.33;;;10.60;99.90;;;;;;5053904;28;20048;-69
2022/06/01 03:19:03;;;;;;;22.48;18.13;;;10.50;99.90;;;;;;5053923;28;20064;-69
2022/06/01 03:21:29;;;;;;;20.13;17.60;;;10.50;99.90;;;;;;5053236;28;20061;-69
2022/06/01 03:23:55;;;;;;;23.85;20.35;;;10.50;99.90;;;;;;5051938;28;20371;-69
2022/06/01 03:26:22;;;;;;;18.38;16.40;;;10.50;99.90;;;;;;5054587;28;20039;-69
2022/06/01 03:28:48;;;;;;;19.23;17.17;;;10.50;99.90;;;;;;5052843;28;20048;-69
2022/06/01 03:31:14;;;;;;;21.48;19.27;;;11.10;99.90;;;;;;5052213;28;20052;-69
2022/06/01 03:33:40;;;;;;;19.15;16.75;;;10.40;99.90;;;;;;5053192;28;20052;-69
2022/06/01 03:36:06;;;;;;;23.70;20.73;;;10.40;99.90;;;;;;5052792;28;20490;-69
2022/06/01 03:38:32;;;;;;;22.08;19.45;;;10.30;99.90;;;;;;5053565;28;20045;-68
2022/06/01 03:40:58;;;;;;;19.98;16.83;;;10.50;99.90;;;;;;5052321;28;20103;-68
2022/06/01 03:43:24;;;;;;;18.10;15.43;;;10.30;99.90;;;;;;5054074;28;20033;-68
2022/06/01 03:45:56;;;;;;;23.50;19.58;;;10.40;99.90;;;;;;5050961;28;20033;-68
2022/06/01 03:48:28;;;;;;;19.35;17.25;;;10.50;99.90;;;;;;5036337;28;20076;-69
2022/06/01 03:50:55;;;;;;;23.00;20.30;;;10.30;99.90;;;;;;5035540;28;20036;-69
2022/06/01 03:53:23;;;;;;;22.30;18.65;;;10.30;99.90;;;;;;5052342;28;20041;-69
2022/06/01 03:55:49;;;;;;;22.15;19.58;;;10.30;99.90;;;;;;5053281;28;20569;-69
2022/06/01 03:58:17;;;;;;;21.88;19.08;;;10.30;99.90;;;;;;5052435;28;20051;-69
2022/06/01 04:00:45;;;;;;;19.10;17.10;;;10.40;99.90;;;;;;5051515;28;20124;-69
2022/06/01 04:03:11;;;;;;;27.52;22.42;;;10.40;99.90;;;;;;5053704;28;20487;-69
2022/06/01 04:05:38;;;;;;;21.63;18.20;;;10.40;99.90;;;;;;5053850;28;20120;-69
2022/06/01 04:08:05;;;;;;;24.90;21.77;;;10.50;99.90;;;;;;5052307;28;20089;-69
2022/06/01 04:10:33;;;;;;;23.90;20.58;;;10.50;99.90;;;;;;5035768;28;20049;-68
2022/06/01 04:12:58;;;;;;;20.63;18.08;;;10.60;99.90;;;;;;5052462;28;20041;-68
2022/06/01 04:15:24;;;;;;;19.38;17.35;;;10.60;99.90;;;;;;5053686;28;20393;-69
2022/06/01 04:17:50;;;;;;;21.08;18.77;;;10.60;99.90;;;;;;5035048;28;20374;-69
2022/06/01 04:20:16;;;;;;;19.70;17.02;;;10.70;99.90;;;;;;5034771;28;20052;-68
2022/06/01 04:22:43;;;;;;;23.17;19.92;;;10.70;99.90;;;;;;5052527;28;20041;-68
2022/06/01 04:25:12;;;;;;;20.40;18.30;;;10.80;99.90;;;;;;5051792;28;20048;-68
2022/06/01 04:27:38;;;;;;;20.23;18.05;;;11.00;99.90;;;;;;5051204;28;20036;-68
2022/06/01 04:30:08;;;;;;;19.52;17.38;;;11.00;99.90;;;;;;5051567;28;20055;-69
2022/06/01 04:32:34;;;;;;;19.55;17.30;;;11.10;99.90;;;;;;5052115;28;20477;-69
2022/06/01 04:35:01;;;;;;;21.58;17.52;;;11.00;99.90;;;;;;5050605;28;20055;-69
2022/06/01 04:37:28;;;;;;;20.92;17.85;;;;;;;;;;5053032;28;20041;-69
2022/06/01 04:39:54;;;;;;;19.77;17.23;;;;;;;;;;5051339;28;20091;-69
2022/06/01 04:42:20;;;;;;;20.52;17.75;;;;;;;;;;5050898;28;20127;-69
2022/06/01 04:44:46;;;;;;;18.75;16.77;;;11.20;99.90;;;;;;5051562;28;20047;-69
2022/06/01 04:47:12;;;;;;;19.40;16.60;;;11.20;99.90;;;;;;5052774;28;20037;-68
2022/06/01 04:49:38;;;;;;;20.00;17.52;;;11.30;99.90;;;;;;5052280;28;20033;-68
2022/06/01 04:52:05;;;;;;;20.33;17.33;;;11.40;99.90;;;;;;5050848;28;20106;-68
2022/06/01 04:54:31;;;;;;;19.20;16.80;;;11.40;99.90;;;;;;5052741;28;20049;-68
2022/06/01 04:56:56;;;;;;;20.08;16.58;;;11.40;99.90;;;;;;5049295;28;20116;-68
2022/06/01 04:59:22;;;;;;;18.88;16.50;;;11.40;99.90;;;;;;5052728;28;20119;-69
2022/06/01 05:01:48;;;;;;;19.92;16.55;;;11.40;99.90;;;;;;5051203;28;20072;-69
2022/06/01 05:04:14;;;;;;;21.42;17.00;;;11.50;99.90;;;;;;5050581;28;20041;-70
2022/06/01 05:06:39;;;;;;;19.10;16.88;;;11.50;99.90;;;;;;5052598;28;20052;-70
2022/06/01 05:09:05;;;;;;;22.60;18.08;;;11.50;99.90;;;;;;5051268;28;20040;-69
2022/06/01 05:11:31;;;;;;;21.80;17.33;;;11.50;99.90;;;;;;5051183;28;20049;-69
2022/06/01 05:13:56;;;;;;;21.02;15.85;;;11.40;99.90;;;;;;5051068;28;20055;-68
2022/06/01 05:16:22;;;;;;;17.65;14.63;;;11.40;99.90;;;;;;5050585;28;20051;-68
2022/06/01 05:18:48;;;;;;;22.42;15.48;;;11.30;99.90;;;;;;5034221;28;20057;-67
2022/06/01 05:21:14;;;;;;;19.65;16.13;;;11.60;99.90;;;;;;5052312;28;20060;-68
2022/06/01 05:23:39;;;;;;;17.40;13.70;;;11.20;99.90;;;;;;5050558;28;20051;-68
2022/06/01 05:26:05;;;;;;;14.68;13.10;;;11.10;99.90;;;;;;5051811;28;20537;-68
2022/06/01 05:28:33;;;;;;;11.57;9.63;;;11.00;99.90;;;;;;5052466;28;20470;-69
2022/06/01 05:31:10;;;;;;;11.07;8.98;;;10.90;99.90;;;;;;5044483;28;20042;-69
2022/06/01 05:33:38;;;;;;;10.80;7.50;;;10.90;99.90;;;;;;5040398;28;20041;-69
2022/06/01 05:36:04;;;;;;;10.23;7.80;;;10.80;99.90;;;;;;5040353;28;20063;-70
2022/06/01 05:38:30;;;;;;;12.02;8.73;;;10.80;99.90;;;;;;5038616;28;20393;-70
2022/06/01 05:40:56;;;;;;;11.13;8.82;;;10.80;99.90;;;;;;5050098;28;20041;-70
2022/06/01 05:43:22;;;;;;;11.77;10.02;;;10.80;99.90;;;;;;5045683;28;20037;-70
2022/06/01 05:45:48;;;;;;;11.18;9.27;;;10.70;99.90;;;;;;5031177;28;20069;-70
2022/06/01 05:48:17;;;;;;;12.80;10.25;;;10.80;99.90;;;;;;5036604;28;20451;-70
2022/06/01 05:50:43;;;;;;;13.18;11.32;;;10.80;99.90;;;;;;5044067;28;21410;-70
2022/06/01 05:53:09;;;;;;;18.25;13.75;;;10.80;99.90;;;;;;5050888;28;20097;-70
2022/06/01 05:55:35;;;;;;;13.27;10.68;;;10.80;99.90;;;;;;5050563;28;20064;-69
2022/06/01 05:58:16;;;;;;;12.50;10.30;;;10.80;99.90;;;;;;5050495;28;20150;-69
2022/06/01 06:00:43;;;;;;;12.57;10.10;;;10.80;99.90;;;;;;5050399;28;20051;-69
2022/06/01 06:03:08;;;;;;;12.88;10.27;;;10.80;99.90;;;;;;5050784;28;20116;-68
2022/06/01 06:08:20;;;;;;;10.90;9.63;;;10.80;99.90;;;;;;5048979;28;20052;-68
2022/06/01 06:10:45;;;;;;;11.35;9.45;;;10.80;99.90;;;;;;5052030;28;20436;-68
2022/06/01 06:13:11;;;;;;;11.70;10.25;;;10.80;99.90;;;;;;5052113;28;20036;-68
2022/06/01 06:15:37;;;;;;;10.77;9.35;;;10.80;99.90;;;;;;5043952;28;20077;-68
2022/06/01 06:18:02;;;;;;;10.38;8.40;;;10.80;99.90;;;;;;5031246;28;20042;-67
2022/06/01 06:20:28;;;;;;;11.13;9.48;;;10.80;99.90;;;;;;5031207;28;20502;-67
2022/06/01 06:22:54;;;;;;;10.45;8.90;;;10.80;99.90;;;;;;5032120;28;20041;-67
2022/06/01 06:25:19;;;;;;;11.63;8.50;;;10.80;99.90;;;;;;5033062;28;20521;-67
2022/06/01 06:27:45;;;;;;;9.68;7.93;;;10.90;99.90;;;;;;5030669;28;20410;-67
2022/06/01 06:30:11;;;;;;;10.20;8.13;;;10.80;99.90;;;;;;5031090;28;20045;-67
2022/06/01 06:32:37;;;;;;;10.70;7.95;;;10.90;99.90;;;;;;5031660;28;20052;-67
2022/06/01 06:35:03;;;;;;;11.77;8.75;;;10.90;99.90;;;;;;5013697;28;20045;-67
2022/06/01 06:37:30;;;;;;;19.98;9.68;;;10.90;99.90;;;;;;5031299;28;20498;-67
2022/06/01 06:39:55;;;;;;;10.32;8.82;;;10.90;99.90;;;;;;5050765;28;20044;-67
2022/06/01 06:42:21;;;;;;;10.93;8.50;;;11.00;99.90;;;;;;5048589;28;20486;-67
2022/06/01 06:44:47;;;;;;;9.20;7.20;;;11.00;99.90;;;;;;5052229;28;20041;-67
2022/06/01 06:47:13;;;;;;;9.82;7.80;;;11.00;99.90;;;;;;5050734;28;20048;-67
2022/06/01 06:49:38;;;;;;;21.80;10.30;;;11.00;99.90;;;;;;5050522;28;20052;-68
2022/06/01 06:52:05;;;;;;;10.18;8.15;;;11.00;99.90;;;;;;5050875;28;20131;-68
2022/06/01 06:54:30;;;;;;;10.95;8.48;;;11.00;99.90;;;;;;5050379;28;20221;-68
2022/06/01 06:56:56;;;;;;;20.60;14.65;;;11.00;99.90;;;;;;5051137;28;20069;-68
2022/06/01 06:59:22;;;;;;;16.77;14.30;;;10.90;99.90;;;;;;5049831;28;20599;-67
2022/06/01 07:01:47;;;;;;;12.40;10.18;;;10.90;99.90;;;;;;5042084;28;20386;-68
2022/06/01 07:04:13;;;;;;;12.35;10.80;;;10.90;99.90;;;;;;5049407;28;20536;-67
2022/06/01 07:06:39;;;;;;;18.60;16.90;;;11.00;99.90;;;;;;5070729;28;20090;-68
2022/06/01 07:09:04;;;;;;;13.07;10.05;;;11.00;99.90;;;;;;5045018;28;20037;-68
2022/06/01 07:11:31;;;;;;;14.65;13.25;;;11.00;99.90;;;;;;5034277;28;20727;-68
2022/06/01 07:13:58;;;;;;;12.20;10.40;;;11.10;99.90;;;;;;5042576;28;20064;-68
2022/06/01 07:16:27;;;;;;;11.73;10.43;;;11.10;99.90;;;;;;5031355;28;20041;-68
2022/06/01 07:18:54;;;;;;;10.23;8.18;;;11.20;99.90;;;;;;5043637;28;20488;-68
2022/06/01 07:21:22;;;;;;;10.60;8.57;;;11.30;99.90;;;;;;5051769;28;20095;-68
2022/06/01 07:23:49;;;;;;;9.43;7.85;;;11.40;99.90;;;;;;5048863;28;20505;-68
2022/06/01 07:26:19;;;;;;;9.35;5.78;;;11.50;99.90;;;;;;5066564;28;20048;-68
2022/06/01 07:28:45;;;;;;;8.85;5.78;;;11.50;99.90;;;;;;5056455;28;20111;-68
2022/06/01 07:31:11;;;;;;;8.95;5.18;;;11.50;99.90;;;;;;5064129;28;20222;-68
2022/06/01 07:33:37;;;;;;;7.75;5.85;;;11.60;99.90;;;;;;5057992;28;20033;-68
2022/06/01 07:36:08;;;;;;;8.98;6.55;;;11.70;99.90;;;;;;5052084;28;20481;-68
2022/06/01 07:44:09;;;;;;;6.25;4.00;;;12.30;99.90;;;;;;5032569;28;20053;-69
2022/06/01 07:46:36;;;;;;;5.78;3.97;;;12.50;99.90;;;;;;5031103;28;20045;-69
2022/06/01 07:49:02;;;;;;;7.20;5.30;;;12.70;99.90;;;;;;5038064;28;21096;-70
2022/06/01 07:51:28;;;;;;;5.88;4.30;;;12.80;99.90;;;;;;5043692;28;20048;-70
2022/06/01 07:53:55;;;;;;;7.13;5.03;;;;;;;;;;5051893;28;20051;-70
2022/06/01 07:56:21;;;;;;;9.30;5.53;;;;;;;;;;5044519;28;20131;-70
2022/06/01 07:58:47;;;;;;;7.38;4.88;;;;;;;;;;5046405;28;20040;-70
2022/06/01 08:01:13;;;;;;;6.75;4.30;;;13.00;99.90;;;;;;5053173;28;20485;-70
2022/06/01 08:03:39;;;;;;;7.80;5.05;;;13.10;99.90;;;;;;5069271;28;20048;-70
2022/06/01 08:06:05;;;;;;;6.45;4.40;;;13.20;99.90;;;;;;5053683;28;20075;-70
2022/06/01 08:08:31;;;;;;;7.22;4.75;;;13.50;99.90;;;;;;5065835;28;20041;-70
2022/06/01 08:10:59;;;;;;;7.18;3.92;;;13.50;99.90;;;;;;5053570;28;20090;-70
2022/06/01 08:13:25;;;;;;;6.20;4.03;;;13.60;99.90;;;;;;5060257;28;20080;-70
2022/06/01 08:15:50;;;;;;;5.80;4.38;;;13.50;99.90;;;;;;5048277;28;20083;-70
2022/06/01 08:18:19;;;;;;;17.80;13.88;;;13.60;99.90;;;;;;5050625;28;20084;-70
2022/06/01 08:20:45;;;;;;;6.65;4.45;;;13.60;99.90;;;;;;5035425;28;20501;-69
2022/06/01 08:23:12;;;;;;;5.20;3.33;;;13.60;99.90;;;;;;5034053;28;20037;-70
2022/06/01 08:25:38;;;;;;;7.43;4.15;;;14.30;99.90;;;;;;5040540;28;20068;-70
2022/06/01 08:28:05;;;;;;;6.35;4.05;;;13.90;99.90;;;;;;5040400;28;20045;-70
2022/06/01 08:30:33;;;;;;;4.78;3.13;;;14.10;99.90;;;;;;5050069;28;20046;-69
2022/06/01 08:32:59;;;;;;;4.95;2.80;;;14.20;99.90;;;;;;5030477;28;20041;-69
2022/06/01 08:35:39;;;;;;;10.02;7.35;;;14.30;99.90;;;;;;5039562;28;20037;-68
2022/06/01 08:38:06;;;;;;;8.18;5.20;;;14.30;99.90;;;;;;5041414;28;20439;-70
2022/06/01 08:40:38;;;;;;;7.38;4.93;;;14.30;99.90;;;;;;5048523;28;20048;-69
2022/06/01 08:43:08;;;;;;;5.55;3.35;;;14.30;99.90;;;;;;5049393;28;20478;-70
2022/06/01 08:45:34;;;;;;;5.32;3.00;;;14.30;99.90;;;;;;5050191;28;20037;-69
2022/06/01 08:48:00;;;;;;;4.22;2.30;;;;;;;;;;5039666;28;20444;-73
2022/06/01 08:50:36;;;;;;;5.30;2.70;;;14.60;99.90;;;;;;5059111;28;20095;-70
2022/06/01 08:53:05;;;;;;;4.30;2.80;;;14.80;99.90;;;;;;5063510;28;20139;-70
2022/06/01 08:55:52;;;;;;;4.28;2.58;;;14.90;99.90;;;;;;5045004;28;20060;-70
2022/06/01 08:58:24;;;;;;;4.30;2.45;;;15.10;99.90;;;;;;5031587;28;20045;-70
2022/06/01 09:01:17;;;;;;;4.30;2.10;;;15.10;99.90;;;;;;5047958;28;20073;-70
2022/06/01 09:03:52;;;;;;;3.28;1.75;;;15.10;99.90;;;;;;5023129;28;20042;-70
2022/06/01 09:06:42;;;;;;;3.25;1.52;;;14.80;99.90;;;;;;5042807;28;20044;-70
2022/06/01 09:09:23;;;;;;;4.00;2.13;;;14.60;99.90;;;;;;5042060;28;20043;-70
2022/06/01 09:11:49;;;;;;;4.25;2.03;;;14.60;99.90;;;;;;5054400;28;20163;-70
2022/06/01 09:14:32;;;;;;;3.13;1.85;;;14.40;99.90;;;;;;5058908;28;20048;-70
2022/06/01 09:16:59;;;;;;;3.47;1.67;;;14.40;99.90;;;;;;5062283;28;20044;-70
2022/06/01 09:22:37;;;;;;;3.58;1.60;;;14.30;99.90;;;;;;5062507;28;20159;-70
2022/06/01 09:22:37;;;;;;;3.47;1.63;;;14.20;99.90;;;;;;5051956;28;20056;-70
2022/06/01 09:25:06;;;;;;;3.25;1.70;;;14.10;99.90;;;;;;5058711;28;20046;-70
2022/06/01 09:27:48;;;;;;;4.85;1.50;;;13.90;99.90;;;;;;5067706;28;20520;-70
2022/06/01 09:30:34;;;;;;;3.25;1.80;;;14.00;99.90;;;;;;5048599;28;20040;-67
2022/06/01 09:33:04;;;;;;;4.35;1.80;;;;;;;;;;5064958;28;20158;-67
2022/06/01 09:35:36;;;;;;;4.63;2.58;;;;;;;;;;5057037;28;20383;-67
2022/06/01 09:38:10;;;;;;;4.07;2.05;;;13.60;99.90;;;;;;5042171;28;20045;-67
2022/06/01 09:40:36;;;;;;;4.45;2.47;;;13.60;99.90;;;;;;5065924;28;20489;-67
2022/06/01 09:43:03;;;;;;;5.80;3.03;;;13.50;99.90;;;;;;5054042;28;20504;-67
2022/06/01 09:45:34;;;;;;;7.20;3.20;;;13.20;99.90;;;;;;5063893;28;20162;-67
2022/06/01 09:48:22;;;;;;;5.38;3.00;;;13.00;99.90;;;;;;5061282;28;20489;-66
2022/06/01 09:51:18;;;;;;;6.78;3.88;;;13.10;99.90;;;;;;5071286;28;20093;-67
2022/06/01 09:53:51;;;;;;;6.95;2.90;;;12.90;99.90;;;;;;5071536;28;20461;-66
2022/06/01 09:56:30;;;;;;;6.70;3.58;;;12.70;99.90;;;;;;5072193;28;20040;-66
2022/06/01 10:07:28;;;;;;;4.88;2.80;;;13.10;99.90;;;;;;5072286;28;19923;-66
2022/06/01 10:10:04;;;;;;;5.57;2.38;;;13.30;99.90;;;;;;5070406;28;20045;-66
2022/06/01 10:12:47;;;;;;;4.05;2.25;;;13.30;99.90;;;;;;5069775;28;20497;-67
2022/06/01 10:15:29;;;;;;;4.97;2.20;;;;;;;;;;5070499;28;20080;-67
2022/06/01 10:18:04;;;;;;;4.93;2.90;;;;;;;;;;5071036;28;20566;-67
2022/06/01 10:20:33;;;;;;;4.63;2.30;;;;;;;;;;5069778;28;20048;-67
2022/06/01 10:23:03;;;;;;;4.65;1.83;;;;;;;;;;5069905;28;20036;-67
2022/06/01 10:25:32;;;;;;;4.10;1.60;;;;;;;;;;5070515;28;20036;-67
2022/06/01 10:28:01;;;;;;;2.65;1.15;;;;;;;;;;5069991;28;20094;-67
2022/06/01 10:30:36;;;;;;;2.58;1.33;;;;;;;;;;5071788;28;20037;-67
2022/06/01 10:33:22;;;;;;;2.03;1.08;;;;;;;;;;5069156;28;20044;-67
2022/06/01 10:35:55;;;;;;;2.83;1.35;;;;;;;;;;5069935;28;20478;-67
2022/06/01 10:38:26;;;;;;;4.13;1.50;;;;;;;;;;5071940;28;20044;-67
2022/06/01 10:40:59;;;;;;;4.25;1.75;;;;;;;;;;5065157;28;20513;-66
2022/06/01 10:43:45;;;;;;;3.30;1.60;;;14.10;99.90;;;;;;5050489;28;20037;-67
2022/06/01 10:46:11;;;;;;;2.63;1.40;;;;;;;;;;5032343;28;20041;-67
2022/06/01 10:48:42;;;;;;;2.95;1.45;;;;;;;;;;5046133;28;20133;-67
2022/06/01 10:51:26;;;;;;;3.40;1.52;;;;;;;;;;5035489;28;20056;-68
2022/06/01 10:53:59;;;;;;;4.35;1.88;;;;;;;;;;5044383;28;20057;-67
2022/06/01 10:56:26;;;;;;;5.50;2.25;;;;;;;;;;5032937;28;20524;-68
2022/06/01 10:58:54;;;;;;;5.03;2.00;;;;;;;;;;5037022;28;20642;-67
2022/06/01 11:01:26;;;;;;;5.68;2.25;;;;;;;;;;5030597;28;20139;-67
2022/06/01 11:03:55;;;;;;;4.97;2.50;;;;;;;;;;5031579;28;20486;-67
2022/06/01 11:06:33;;;;;;;4.25;2.17;;;;;;;;;;5044240;28;20148;-67
2022/06/01 11:09:06;;;;;;;3.72;2.20;;;;;;;;;;5029432;28;20130;-67
2022/06/01 11:11:45;;;;;;;3.58;1.95;;;;;;;;;;5014406;28;20084;-67
2022/06/01 11:14:14;;;;;;;4.57;2.17;;;;;;;;;;5029791;28;20211;-67
2022/06/01 11:17:03;;;;;;;4.38;1.92;;;;;;;;;;5033185;28;20037;-67
2022/06/01 11:19:35;;;;;;;4.10;2.00;;;;;;;;;;5045447;28;20061;-67
2022/06/01 11:22:21;;;;;;;3.72;2.08;;;;;;;;;;5049351;28;20132;-67
2022/06/01 11:25:03;;;;;;;3.22;1.52;;;;;;;;;;5051787;28;20398;-67
2022/06/01 11:27:35;;;;;;;3.60;1.90;;;;;;;;;;5049940;28;20502;-67
2022/06/01 11:30:09;;;;;;;3.80;1.90;;;;;;;;;;5044052;28;20044;-67
2022/06/01 11:32:38;;;;;;;3.78;1.98;;;;;;;;;;5050368;28;20048;-67
2022/06/01 11:35:15;;;;;;;4.25;2.10;;;;;;;;;;5049082;28;20502;-67
2022/06/01 11:37:49;;;;;;;4.00;2.38;;;;;;;;;;5050717;28;20124;-67
2022/06/01 11:40:27;;;;;;;4.25;2.40;;;;;;;;;;5050316;28;20049;-67
2022/06/01 11:42:57;;;;;;;5.20;3.50;;;;;;;;;;5047692;28;20132;-67
2022/06/01 11:45:28;;;;;;;5.07;3.22;;;;;;;;;;5045514;28;20044;-67
2022/06/01 11:47:55;;;;;;;7.57;3.35;;;;;;;;;;5045041;28;20091;-67
2022/06/01 11:50:25;;;;;;;5.55;3.65;;;;;;;;;;5049870;28;20043;-66
2022/06/01 11:52:52;;;;;;;6.07;3.00;;;;;;;;;;5037612;28;20055;-67
2022/06/01 11:55:24;;;;;;;5.90;3.95;;;;;;;;;;5045152;28;20036;-66
2022/06/01 11:57:55;;;;;;;6.45;3.35;;;;;;;;;;5057326;28;20044;-67
2022/06/01 12:00:41;;;;;;;6.10;3.03;;;;;;;;;;5055933;28;20048;-67
2022/06/01 12:03:34;;;;;;;5.10;2.63;;;;;;;;;;5041380;28;20036;-67
2022/06/01 12:06:11;;;;;;;4.75;2.88;;;;;;;;;;5050451;28;20045;-67
2022/06/01 12:08:37;;;;;;;4.07;2.05;;;;;;;;;;5056579;28;20042;-67
2022/06/01 12:11:05;;;;;;;3.60;1.83;;;;;;;;;;5033657;28;20484;-67
2022/06/01 12:13:38;;;;;;;3.35;1.77;;;;;;;;;;5056540;28;20071;-67
2022/06/01 12:16:04;;;;;;;3.90;2.13;;;;;;;;;;5056077;28;20091;-67
2022/06/01 12:18:31;;;;;;;5.32;2.90;;;;;;;;;;5042239;28;20104;-67
2022/06/01 12:21:16;;;;;;;6.28;2.35;;;;;;;;;;5049058;28;20053;-66
2022/06/01 12:29:53;;;;;;;5.13;3.00;;;;;;;;;;5016665;28;20704;-67
2022/06/01 12:32:19;;;;;;;5.25;2.80;;;;;;;;;;5030216;28;20794;-67
2022/06/01 12:34:51;;;;;;;6.03;3.10;;;;;;;;;;5036029;28;20140;-69
2022/06/01 12:37:35;;;;;;;7.00;3.58;;;;;;;;;;5032963;28;20044;-69
2022/06/01 12:40:11;;;;;;;6.45;3.60;;;;;;;;;;5033062;28;20088;-69
2022/06/01 12:42:41;;;;;;;5.28;3.55;;;;;;;;;;5033081;28;20046;-69
2022/06/01 12:45:12;;;;;;;5.35;3.30;;;;;;;;;;5051037;28;20386;-69
2022/06/01 12:47:51;;;;;;;7.43;3.80;;;;;;;;;;5046993;28;20048;-69
2022/06/01 12:50:18;;;;;;;5.50;3.70;;;;;;;;;;5033118;28;20038;-69
2022/06/01 12:52:44;;;;;;;6.85;3.45;;;14.70;99.90;;;;;;5033346;28;20626;-69
2022/06/01 12:55:20;;;;;;;6.75;3.50;;;14.70;99.90;;;;;;5044720;28;20033;-69
2022/06/01 12:57:55;;;;;;;5.70;3.38;;;14.80;99.90;;;;;;5065293;28;20476;-69
2022/06/01 13:00:33;;;;;;;5.93;3.85;;;14.80;99.90;;;;;;5039440;28;20043;-69
2022/06/01 13:02:59;;;;;;;8.32;3.58;;;;;;;;;;5058398;28;20397;-69
2022/06/01 13:05:35;;;;;;;6.90;3.10;;;;;;;;;;5062153;28;20493;-69
2022/06/01 13:08:01;;;;;;;7.35;3.20;;;;;;;;;;5048407;28;20041;-69
2022/06/01 13:10:31;;;;;;;4.90;2.58;;;;;;;;;;5045259;28;20462;-69
2022/06/01 13:13:06;;;;;;;5.22;2.70;;;;;;;;;;5046536;28;20098;-69
2022/06/01 13:15:33;;;;;;;4.50;2.40;;;;;;;;;;5038716;28;20486;-69
2022/06/01 13:18:00;;;;;;;5.00;2.42;;;;;;;;;;5026282;28;20081;-69
2022/06/01 13:20:33;;;;;;;6.97;2.88;;;;;;;;;;5028398;28;20442;-69
2022/06/01 13:22:59;;;;;;;5.50;2.78;;;;;;;;;;5026644;28;20625;-69
2022/06/01 13:25:29;;;;;;;4.60;2.42;;;;;;;;;;5029641;28;20798;-69
2022/06/01 13:27:55;;;;;;;4.93;3.08;;;;;;;;;;5027889;28;20052;-69
2022/06/01 13:30:22;;;;;;;4.57;2.67;;;;;;;;;;5027054;28;20037;-70
2022/06/01 13:32:50;;;;;;;5.35;3.10;;;;;;;;;;5025924;28;20046;-70
2022/06/01 13:35:28;;;;;;;5.82;3.40;;;;;;;;;;5029755;28;20041;-70
2022/06/01 13:37:56;;;;;;;8.00;3.60;;;;;;;;;;5031528;28;20045;-70
2022/06/01 13:40:30;;;;;;;6.57;4.80;;;14.50;99.90;;;;;;5043046;28;20132;-70
2022/06/01 13:43:11;;;;;;;6.88;4.72;;;14.50;99.90;;;;;;5046795;28;20044;-69
2022/06/01 13:45:55;;;;;;;8.13;4.95;;;14.30;99.90;;;;;;5048121;28;20167;-69